createdAt,value
2023-11-06T00:00:52.301Z,58.32
2023-11-06T00:03:25.425Z,58.14
2023-11-06T00:05:59.133Z,57.93
2023-11-06T00:08:32.414Z,57.91
2023-11-06T00:21:24.797Z,57.57
2023-11-06T00:24:06.118Z,57.58
2023-11-06T00:26:39.359Z,57.72
2023-11-06T00:29:13.183Z,57.06
2023-11-06T00:31:46.422Z,57.44
2023-11-06T00:34:20.220Z,57.12
2023-11-06T00:36:55.474Z,57.56
2023-11-06T00:49:44.132Z,57.17
2023-11-06T00:52:26.142Z,57.17
2023-11-06T00:54:59.392Z,56.93
2023-11-06T00:57:33.131Z,57.22
2023-11-06T01:00:08.635Z,57.26
2023-11-06T01:02:42.356Z,57.40
2023-11-06T01:15:54.134Z,57.36
2023-11-06T01:18:27.538Z,57.43
2023-11-06T01:21:01.170Z,57.27
2023-11-06T01:23:34.406Z,57.30
2023-11-06T01:26:08.172Z,57.21
2023-11-06T01:28:41.441Z,57.41
2023-11-06T01:41:32.110Z,57.44
2023-11-06T01:44:12.146Z,57.65
2023-11-06T01:46:45.517Z,57.49
2023-11-06T01:49:19.157Z,57.49
2023-11-06T01:51:54.190Z,57.66
2023-11-06T01:54:28.162Z,57.77
2023-11-06T01:57:04.597Z,57.39
2023-11-06T02:10:00.127Z,58.12
2023-11-06T02:12:42.151Z,58.14
2023-11-06T02:15:15.379Z,58.24
2023-11-06T02:17:49.137Z,58.09
2023-11-06T02:20:22.865Z,57.99
2023-11-06T02:23:05.467Z,58.07
2023-11-06T02:36:17.071Z,57.96
2023-11-06T02:38:52.235Z,58.32
2023-11-06T02:41:26.131Z,58.55
2023-11-06T02:43:59.376Z,58.45
2023-11-06T02:46:33.083Z,58.83
2023-11-06T03:03:10.094Z,59.01
2023-11-06T03:05:50.186Z,59.04
2023-11-06T03:08:23.382Z,59.00
2023-11-06T03:10:57.404Z,58.96
2023-11-06T03:13:31.266Z,59.26
2023-11-06T03:16:12.086Z,59.36
2023-11-06T03:18:47.284Z,59.10
2023-11-06T03:28:11.074Z,59.37
2023-11-06T03:30:44.675Z,59.30
2023-11-06T03:33:18.103Z,59.27
2023-11-06T03:35:53.275Z,59.41
2023-11-06T03:38:27.122Z,59.37
2023-11-06T03:41:00.871Z,59.29
2023-11-06T03:43:34.131Z,59.33
2023-11-06T03:56:08.105Z,59.37
2023-11-06T03:58:41.350Z,59.06
2023-11-06T04:01:15.118Z,59.19
2023-11-06T04:03:48.366Z,59.11
2023-11-06T04:06:22.158Z,59.24
2023-11-06T04:08:55.386Z,58.98
2023-11-06T04:21:46.070Z,58.48
2023-11-06T04:24:26.098Z,58.58
2023-11-06T04:26:59.314Z,58.19
2023-11-06T04:29:33.086Z,58.55
2023-11-06T04:32:07.010Z,58.73
2023-11-06T04:34:40.151Z,58.84
2023-11-06T04:37:15.263Z,58.68
2023-11-06T04:50:04.193Z,58.68
2023-11-06T04:52:47.094Z,58.80
2023-11-06T04:55:20.332Z,58.67
2023-11-06T04:57:54.083Z,58.51
2023-11-06T05:00:27.392Z,58.52
2023-11-06T05:03:01.205Z,58.43
2023-11-06T05:16:14.373Z,58.44
2023-11-06T05:18:48.365Z,58.19
2023-11-06T05:21:29.108Z,58.41
2023-11-06T05:24:02.365Z,58.40
2023-11-06T05:26:36.107Z,58.28
2023-11-06T05:43:13.064Z,58.41
2023-11-06T05:45:53.067Z,58.46
2023-11-06T05:48:26.426Z,58.45
2023-11-06T05:51:00.097Z,58.42
2023-11-06T05:53:33.341Z,58.34
2023-11-06T05:56:07.099Z,58.54
2023-11-06T05:58:42.240Z,58.51
2023-11-06T06:08:31.131Z,58.67
2023-11-06T06:11:05.706Z,58.69
2023-11-06T06:13:39.092Z,58.40
2023-11-06T06:16:14.291Z,58.16
2023-11-06T06:18:48.325Z,58.08
2023-11-06T06:21:21.375Z,58.00
2023-11-06T06:23:55.090Z,58.22
2023-11-06T06:37:27.066Z,58.05
2023-11-06T06:40:00.440Z,57.82
2023-11-06T06:42:34.085Z,57.77
2023-11-06T06:45:08.900Z,58.33
2023-11-06T06:47:42.143Z,57.99
2023-11-06T07:04:19.077Z,58.20
2023-11-06T07:06:59.206Z,58.48
2023-11-06T07:09:32.449Z,58.12
2023-11-06T07:12:06.094Z,57.94
2023-11-06T07:14:39.358Z,58.21
2023-11-06T07:17:13.153Z,58.33
2023-11-06T07:30:25.114Z,58.59
2023-11-06T07:32:58.360Z,58.81
2023-11-06T07:35:32.221Z,58.64
2023-11-06T07:38:05.348Z,58.84
2023-11-06T07:40:39.087Z,58.81
2023-11-06T07:43:12.356Z,58.90
2023-11-06T07:56:03.046Z,59.27
2023-11-06T07:58:43.901Z,59.00
2023-11-06T08:01:17.366Z,58.95
2023-11-06T08:03:51.152Z,59.13
2023-11-06T08:06:24.317Z,59.02
2023-11-06T08:08:58.070Z,59.08
2023-11-06T08:22:18.111Z,59.43
2023-11-06T08:24:51.378Z,59.35
2023-11-06T08:27:25.240Z,59.39
2023-11-06T08:29:58.304Z,59.21
2023-11-06T08:32:32.135Z,59.30
2023-11-06T08:35:06.589Z,59.15
2023-11-06T08:37:42.098Z,59.13
2023-11-06T08:50:52.078Z,59.39
2023-11-06T08:53:27.251Z,59.15
2023-11-06T08:56:01.123Z,59.14
2023-11-06T08:58:34.427Z,59.31
2023-11-06T09:01:08.079Z,59.16
2023-11-06T09:03:41.340Z,58.82
2023-11-06T09:16:32.051Z,59.38
2023-11-06T09:19:13.106Z,59.41
2023-11-06T09:21:46.354Z,59.47
2023-11-06T09:24:20.070Z,59.67
2023-11-06T09:26:53.618Z,60.02
2023-11-06T09:43:19.969Z,60.96
2023-11-06T09:45:53.315Z,61.03
2023-11-06T09:48:28.172Z,60.73
2023-11-06T09:51:09.808Z,61.01
2023-11-06T09:53:53.104Z,60.81
2023-11-06T09:56:28.379Z,61.20
2023-11-06T09:59:04.104Z,61.28
2023-11-06T10:09:31.047Z,61.18
2023-11-06T10:12:24.055Z,60.68
2023-11-06T10:14:59.244Z,60.86
2023-11-06T10:17:33.120Z,60.49
2023-11-06T10:20:10.894Z,60.29
2023-11-06T10:23:04.111Z,59.89
2023-11-06T10:36:22.231Z,60.13
2023-11-06T10:39:08.791Z,60.36
2023-11-06T10:41:51.068Z,60.54
2023-11-06T10:44:24.539Z,60.60
2023-11-06T10:47:00.083Z,60.43
2023-11-06T10:49:35.678Z,60.35
2023-11-06T10:52:14.128Z,60.11
2023-11-06T11:02:44.177Z,60.84
2023-11-06T11:05:25.223Z,61.77
2023-11-06T11:08:01.344Z,62.16
2023-11-06T11:10:35.050Z,62.87
2023-11-06T11:13:08.564Z,63.00
2023-11-06T11:15:42.070Z,63.32
2023-11-06T11:18:16.299Z,63.52
2023-11-06T11:31:40.050Z,62.04
2023-11-06T11:34:33.203Z,62.03
2023-11-06T11:37:49.055Z,61.57
2023-11-06T11:40:29.333Z,61.35
2023-11-06T11:43:39.602Z,61.14
2023-11-06T11:56:58.044Z,60.31
2023-11-06T11:59:50.077Z,59.87
2023-11-06T12:02:29.357Z,59.45
2023-11-06T12:05:20.148Z,59.81
2023-11-06T12:07:53.296Z,60.06
2023-11-06T12:10:35.097Z,60.00
2023-11-06T12:13:18.616Z,60.07
2023-11-06T12:23:04.073Z,60.04
2023-11-06T12:25:38.790Z,59.92
2023-11-06T12:28:14.054Z,59.55
2023-11-06T12:30:54.235Z,59.52
2023-11-06T12:33:39.166Z,59.30
2023-11-06T12:36:25.759Z,59.15
2023-11-06T12:39:07.087Z,59.26
2023-11-06T12:49:44.053Z,59.07
2023-11-06T12:52:28.090Z,59.01
2023-11-06T12:55:01.290Z,58.93
2023-11-06T12:57:35.066Z,58.37
2023-11-06T13:00:09.963Z,58.21
2023-11-06T13:02:43.129Z,58.15
2023-11-06T13:16:33.104Z,56.75
2023-11-06T13:19:06.562Z,56.86
2023-11-06T13:21:40.321Z,56.70
2023-11-06T13:24:14.561Z,56.82
2023-11-06T13:26:48.104Z,56.82
2023-11-06T13:29:21.349Z,56.19
2023-11-06T13:31:57.070Z,56.09
2023-11-06T13:45:07.086Z,55.43
2023-11-06T13:47:42.260Z,55.42
2023-11-06T13:50:16.355Z,55.49
2023-11-06T13:52:50.311Z,55.20
2023-11-06T13:55:24.063Z,55.08
2023-11-06T13:57:57.382Z,55.13
2023-11-06T14:10:48.049Z,54.34
2023-11-06T14:13:29.071Z,54.36
2023-11-06T14:16:02.387Z,53.99
2023-11-06T14:18:36.107Z,53.17
2023-11-06T14:21:09.391Z,52.99
2023-11-06T14:23:43.128Z,52.71
2023-11-06T14:39:20.030Z,50.69
2023-11-06T14:42:00.317Z,50.30
2023-11-06T14:44:34.371Z,50.28
2023-11-06T14:47:15.119Z,50.20
2023-11-06T14:49:48.375Z,50.48
2023-11-06T14:52:22.234Z,50.40
2023-11-06T15:05:34.076Z,50.99
2023-11-06T15:08:07.258Z,51.81
2023-11-06T15:10:41.062Z,51.81
2023-11-06T15:13:14.322Z,51.89
2023-11-06T15:15:48.076Z,52.07
2023-11-06T15:18:21.538Z,52.25
2023-11-06T15:31:12.031Z,52.98
2023-11-06T15:33:52.123Z,53.60
2023-11-06T15:36:25.346Z,54.50
2023-11-06T15:38:59.075Z,54.35
2023-11-06T15:41:32.486Z,54.73
2023-11-06T15:44:06.061Z,55.16
2023-11-06T15:57:18.248Z,55.41
2023-11-06T15:59:51.371Z,55.59
2023-11-06T16:02:25.131Z,55.79
2023-11-06T16:04:58.296Z,55.59
2023-11-06T16:07:32.061Z,55.79
2023-11-06T16:10:07.568Z,55.84
2023-11-06T16:12:43.062Z,56.17
2023-11-06T16:25:53.078Z,56.42
2023-11-06T16:28:28.244Z,56.43
2023-11-06T16:31:02.098Z,56.30
2023-11-06T16:33:35.540Z,56.34
2023-11-06T16:36:09.067Z,56.40
2023-11-06T16:38:42.290Z,56.60
2023-11-06T16:51:33.037Z,56.50
2023-11-06T16:54:13.104Z,56.45
2023-11-06T16:56:46.298Z,56.67
2023-11-06T16:59:20.240Z,56.31
2023-11-06T17:01:53.316Z,56.31
2023-11-06T17:18:09.139Z,55.66
2023-11-06T17:20:42.477Z,55.83
2023-11-06T17:23:16.074Z,55.56
2023-11-06T17:25:49.375Z,55.58
2023-11-06T17:28:24.648Z,55.49
2023-11-06T17:30:59.288Z,55.66
2023-11-06T17:33:35.131Z,55.71
2023-11-06T17:44:02.034Z,55.84
2023-11-06T17:46:42.067Z,56.26
2023-11-06T17:49:17.226Z,56.09
2023-11-06T17:51:51.048Z,55.67
2023-11-06T17:54:24.252Z,55.57
2023-11-06T17:57:04.067Z,55.66
2023-11-06T18:10:49.071Z,55.77
2023-11-06T18:13:22.344Z,55.72
2023-11-06T18:15:56.089Z,55.60
2023-11-06T18:18:29.519Z,55.53
2023-11-06T18:21:03.061Z,55.52
2023-11-06T18:23:36.338Z,55.30
2023-11-06T18:39:52.062Z,55.70
2023-11-06T18:42:25.733Z,55.87
2023-11-06T18:44:59.097Z,55.60
2023-11-06T18:47:32.431Z,55.67
2023-11-06T18:50:06.055Z,55.66
2023-11-06T18:52:39.339Z,55.63
2023-11-06T19:05:30.037Z,55.94
2023-11-06T19:08:10.248Z,55.99
2023-11-06T19:10:43.358Z,55.87
2023-11-06T19:13:17.048Z,56.04
2023-11-06T19:15:50.307Z,55.99
2023-11-06T19:18:24.180Z,55.83
2023-11-06T19:31:36.066Z,56.19
2023-11-06T19:34:09.355Z,56.24
2023-11-06T19:36:43.071Z,56.31
2023-11-06T19:39:16.468Z,56.19
2023-11-06T19:41:50.119Z,56.18
2023-11-06T19:58:27.024Z,56.39
2023-11-06T20:01:07.062Z,56.33
2023-11-06T20:03:40.505Z,56.45
2023-11-06T20:06:15.116Z,56.41
2023-11-06T20:08:48.357Z,56.37
2023-11-06T20:11:22.311Z,56.40
2023-11-06T20:13:57.225Z,56.38
2023-11-06T20:26:46.069Z,56.45
2023-11-06T20:29:28.058Z,56.59
2023-11-06T20:32:01.331Z,56.47
2023-11-06T20:34:35.043Z,56.64
2023-11-06T20:37:08.354Z,56.52
2023-11-06T20:53:24.086Z,57.05
2023-11-06T20:55:57.400Z,56.99
2023-11-06T20:58:31.061Z,57.07
2023-11-06T21:01:05.114Z,57.01
2023-11-06T21:03:38.168Z,57.06
2023-11-06T21:06:11.333Z,57.18
2023-11-06T21:08:47.110Z,57.20
2023-11-06T21:18:32.104Z,57.27
2023-11-06T21:21:13.058Z,57.35
2023-11-06T21:23:48.277Z,57.33
2023-11-06T21:26:22.071Z,57.50
2023-11-06T21:28:55.444Z,57.50
2023-11-06T21:31:29.051Z,57.63
2023-11-06T21:34:02.528Z,57.58
2023-11-06T21:46:53.011Z,57.79
2023-11-06T21:49:33.100Z,57.75
2023-11-06T21:52:06.644Z,57.68
2023-11-06T21:54:51.064Z,57.81
2023-11-06T21:57:28.275Z,57.80
2023-11-06T22:13:44.051Z,57.99
2023-11-06T22:16:17.353Z,58.03
2023-11-06T22:18:51.332Z,58.15
2023-11-06T22:21:25.317Z,58.24
2023-11-06T22:23:59.116Z,58.28
2023-11-06T22:26:32.306Z,58.35
2023-11-06T22:29:08.068Z,58.42
2023-11-06T22:38:53.075Z,58.58
2023-11-06T22:41:33.086Z,58.51
2023-11-06T22:44:08.310Z,58.63
2023-11-06T22:46:43.034Z,58.63
2023-11-06T22:49:16.316Z,58.68
2023-11-06T22:51:50.122Z,58.72
2023-11-06T22:54:23.823Z,58.80
2023-11-06T23:07:14.006Z,59.00
2023-11-06T23:09:54.068Z,59.05
2023-11-06T23:12:27.303Z,59.15
2023-11-06T23:15:01.155Z,59.12
2023-11-06T23:17:34.332Z,59.16
2023-11-06T23:33:50.136Z,59.41
2023-11-06T23:36:23.282Z,59.45
2023-11-06T23:38:57.082Z,59.60
2023-11-06T23:41:39.891Z,59.64
2023-11-06T23:44:23.026Z,59.77
2023-11-06T23:46:56.278Z,59.75
2023-11-06T23:59:02.046Z,60.18
